sensor_id;sensor_type;location;lat;lon;timestamp;pressure;altitude;pressure_sealevel;temperature;humidity
23574;BME280;11965;53.640;10.050;2023-02-17T00:01:19;101432.50;;;7.52;100.00
23574;BME280;11965;53.640;10.050;2023-02-17T00:03:46;101436.91;;;7.45;100.00
23574;BME280;11965;53.640;10.050;2023-02-17T00:06:15;101434.00;;;7.47;100.00
23574;BME280;11965;53.640;10.050;2023-02-17T00:08:43;101429.34;;;7.47;100.00
23574;BME280;11965;53.640;10.050;2023-02-17T00:11:10;101429.88;;;7.51;100.00
23574;BME280;11965;53.640;10.050;2023-02-17T00:13:38;101429.16;;;7.49;100.00
23574;BME280;11965;53.640;10.050;2023-02-17T00:16:08;101426.75;;;7.46;100.00
23574;BME280;11965;53.640;10.050;2023-02-17T00:18:35;101416.56;;;7.46;100.00
23574;BME280;11965;53.640;10.050;2023-02-17T00:21:11;101416.56;;;7.46;100.00
23574;BME280;11965;53.640;10.050;2023-02-17T00:23:38;101411.94;;;7.47;100.00
23574;BME280;11965;53.640;10.050;2023-02-17T00:26:05;101410.72;;;7.49;100.00
23574;BME280;11965;53.640;10.050;2023-02-17T00:28:32;101410.56;;;7.51;100.00
23574;BME280;11965;53.640;10.050;2023-02-17T00:30:59;101406.63;;;7.53;100.00
23574;BME280;11965;53.640;10.050;2023-02-17T00:33:32;101411.28;;;7.53;100.00
23574;BME280;11965;53.640;10.050;2023-02-17T00:36:02;101415.13;;;7.60;100.00
23574;BME280;11965;53.640;10.050;2023-02-17T00:38:29;101407.34;;;7.56;100.00
23574;BME280;11965;53.640;10.050;2023-02-17T00:40:56;101408.34;;;7.55;100.00
23574;BME280;11965;53.640;10.050;2023-02-17T00:43:22;101407.41;;;7.64;100.00
23574;BME280;11965;53.640;10.050;2023-02-17T00:45:49;101404.25;;;7.59;100.00
23574;BME280;11965;53.640;10.050;2023-02-17T00:48:16;101407.00;;;7.59;100.00
23574;BME280;11965;53.640;10.050;2023-02-17T00:50:46;101413.91;;;7.63;100.00
23574;BME280;11965;53.640;10.050;2023-02-17T00:53:13;101411.34;;;7.61;100.00
23574;BME280;11965;53.640;10.050;2023-02-17T00:55:40;101398.03;;;7.57;100.00
23574;BME280;11965;53.640;10.050;2023-02-17T00:58:06;101393.03;;;7.60;100.00
23574;BME280;11965;53.640;10.050;2023-02-17T01:00:33;101402.03;;;7.62;100.00
23574;BME280;11965;53.640;10.050;2023-02-17T01:03:00;101405.03;;;7.69;100.00
23574;BME280;11965;53.640;10.050;2023-02-17T01:05:27;101398.00;;;7.74;100.00
23574;BME280;11965;53.640;10.050;2023-02-17T01:07:55;101394.00;;;7.69;100.00
23574;BME280;11965;53.640;10.050;2023-02-17T01:10:22;101382.78;;;7.70;100.00
23574;BME280;11965;53.640;10.050;2023-02-17T01:12:49;101374.88;;;7.75;100.00
23574;BME280;11965;53.640;10.050;2023-02-17T01:15:16;101374.34;;;7.72;100.00
23574;BME280;11965;53.640;10.050;2023-02-17T01:17:43;101376.25;;;7.71;100.00
23574;BME280;11965;53.640;10.050;2023-02-17T01:20:10;101363.31;;;7.72;100.00
23574;BME280;11965;53.640;10.050;2023-02-17T01:22:38;101367.78;;;7.73;100.00
23574;BME280;11965;53.640;10.050;2023-02-17T01:25:08;101365.41;;;7.78;100.00
23574;BME280;11965;53.640;10.050;2023-02-17T01:27:34;101359.03;;;7.78;100.00
23574;BME280;11965;53.640;10.050;2023-02-17T01:30:02;101358.88;;;7.79;100.00
23574;BME280;11965;53.640;10.050;2023-02-17T01:32:29;101361.94;;;7.76;100.00
23574;BME280;11965;53.640;10.050;2023-02-17T01:34:56;101345.06;;;7.79;100.00
23574;BME280;11965;53.640;10.050;2023-02-17T01:37:22;101356.31;;;7.86;100.00
23574;BME280;11965;53.640;10.050;2023-02-17T01:39:49;101349.69;;;7.79;100.00
23574;BME280;11965;53.640;10.050;2023-02-17T01:42:18;101337.69;;;7.88;100.00
23574;BME280;11965;53.640;10.050;2023-02-17T01:47:55;101324.72;;;7.80;100.00
23574;BME280;11965;53.640;10.050;2023-02-17T01:50:31;101334.41;;;7.92;100.00
23574;BME280;11965;53.640;10.050;2023-02-17T01:53:01;101319.91;;;7.82;100.00
23574;BME280;11965;53.640;10.050;2023-02-17T01:55:32;101317.00;;;7.92;100.00
23574;BME280;11965;53.640;10.050;2023-02-17T01:58:06;101298.72;;;7.91;100.00
23574;BME280;11965;53.640;10.050;2023-02-17T02:00:35;101312.00;;;7.87;100.00
23574;BME280;11965;53.640;10.050;2023-02-17T02:03:07;101302.66;;;7.88;100.00
23574;BME280;11965;53.640;10.050;2023-02-17T02:05:37;101295.59;;;7.86;100.00
23574;BME280;11965;53.640;10.050;2023-02-17T02:08:06;101282.88;;;7.93;100.00
23574;BME280;11965;53.640;10.050;2023-02-17T02:10:33;101275.78;;;7.90;100.00
23574;BME280;11965;53.640;10.050;2023-02-17T02:13:06;101275.44;;;7.93;100.00
23574;BME280;11965;53.640;10.050;2023-02-17T02:15:39;101261.16;;;7.98;100.00
23574;BME280;11965;53.640;10.050;2023-02-17T02:18:35;101264.56;;;8.00;100.00
23574;BME280;11965;53.640;10.050;2023-02-17T02:21:39;101264.56;;;8.00;100.00
23574;BME280;11965;53.640;10.050;2023-02-17T02:24:26;101257.38;;;8.07;100.00
23574;BME280;11965;53.640;10.050;2023-02-17T02:27:29;101257.88;;;8.11;100.00
23574;BME280;11965;53.640;10.050;2023-02-17T02:30:37;101248.72;;;8.02;100.00
23574;BME280;11965;53.640;10.050;2023-02-17T02:33:24;101234.41;;;8.07;100.00
23574;BME280;11965;53.640;10.050;2023-02-17T02:36:01;101230.63;;;8.08;100.00
23574;BME280;11965;53.640;10.050;2023-02-17T02:38:36;101228.19;;;8.05;100.00
23574;BME280;11965;53.640;10.050;2023-02-17T02:41:09;101231.50;;;8.16;100.00
23574;BME280;11965;53.640;10.050;2023-02-17T02:43:38;101240.13;;;8.13;100.00
23574;BME280;11965;53.640;10.050;2023-02-17T02:46:05;101235.28;;;8.15;100.00
23574;BME280;11965;53.640;10.050;2023-02-17T02:48:34;101235.81;;;8.19;100.00
23574;BME280;11965;53.640;10.050;2023-02-17T02:51:23;101234.44;;;8.15;100.00
23574;BME280;11965;53.640;10.050;2023-02-17T02:57:18;101219.59;;;8.16;100.00
23574;BME280;11965;53.640;10.050;2023-02-17T03:00:03;101212.69;;;8.20;100.00
23574;BME280;11965;53.640;10.050;2023-02-17T03:02:40;101213.91;;;8.17;100.00
23574;BME280;11965;53.640;10.050;2023-02-17T03:05:19;101216.13;;;8.14;100.00
23574;BME280;11965;53.640;10.050;2023-02-17T03:07:56;101224.09;;;8.17;100.00
23574;BME280;11965;53.640;10.050;2023-02-17T03:10:25;101215.63;;;8.18;100.00
23574;BME280;11965;53.640;10.050;2023-02-17T03:12:52;101205.97;;;8.14;100.00
23574;BME280;11965;53.640;10.050;2023-02-17T03:15:25;101199.59;;;8.22;100.00
23574;BME280;11965;53.640;10.050;2023-02-17T03:17:55;101193.38;;;8.20;100.00
23574;BME280;11965;53.640;10.050;2023-02-17T03:20:25;101190.28;;;8.23;100.00
23574;BME280;11965;53.640;10.050;2023-02-17T03:22:53;101189.56;;;8.37;100.00
23574;BME280;11965;53.640;10.050;2023-02-17T03:25:20;101181.63;;;8.34;100.00
23574;BME280;11965;53.640;10.050;2023-02-17T03:27:47;101178.88;;;8.26;100.00
23574;BME280;11965;53.640;10.050;2023-02-17T03:30:14;101178.72;;;8.36;100.00
23574;BME280;11965;53.640;10.050;2023-02-17T03:32:41;101180.66;;;8.44;100.00
23574;BME280;11965;53.640;10.050;2023-02-17T03:35:08;101180.81;;;8.42;100.00
23574;BME280;11965;53.640;10.050;2023-02-17T03:37:36;101169.59;;;8.44;100.00
23574;BME280;11965;53.640;10.050;2023-02-17T03:40:04;101173.00;;;8.37;100.00
23574;BME280;11965;53.640;10.050;2023-02-17T03:42:31;101180.81;;;8.42;100.00
23574;BME280;11965;53.640;10.050;2023-02-17T03:44:58;101172.88;;;8.47;100.00
23574;BME280;11965;53.640;10.050;2023-02-17T03:47:25;101173.00;;;8.37;100.00
23574;BME280;11965;53.640;10.050;2023-02-17T03:49:52;101170.25;;;8.37;100.00
23574;BME280;11965;53.640;10.050;2023-02-17T03:52:18;101162.50;;;8.33;100.00
23574;BME280;11965;53.640;10.050;2023-02-17T03:54:47;101162.66;;;8.31;100.00
23574;BME280;11965;53.640;10.050;2023-02-17T03:57:13;101161.44;;;8.34;100.00
23574;BME280;11965;53.640;10.050;2023-02-17T03:59:40;101157.00;;;8.41;100.00
23574;BME280;11965;53.640;10.050;2023-02-17T04:02:07;101157.16;;;8.48;100.00
23574;BME280;11965;53.640;10.050;2023-02-17T04:04:34;101155.78;;;8.52;100.00
23574;BME280;11965;53.640;10.050;2023-02-17T04:07:02;101157.84;;;8.50;100.00
23574;BME280;11965;53.640;10.050;2023-02-17T04:09:29;101144.41;;;8.47;100.00
23574;BME280;11965;53.640;10.050;2023-02-17T04:11:57;101152.50;;;8.48;100.00
23574;BME280;11965;53.640;10.050;2023-02-17T04:14:24;101135.06;;;8.48;100.00
23574;BME280;11965;53.640;10.050;2023-02-17T04:16:51;101146.81;;;8.50;100.00
23574;BME280;11965;53.640;10.050;2023-02-17T04:19:18;101147.66;;;8.50;100.00
23574;BME280;11965;53.640;10.050;2023-02-17T04:21:44;101151.63;;;8.48;100.00
23574;BME280;11965;53.640;10.050;2023-02-17T04:24:11;101151.28;;;8.51;100.00
23574;BME280;11965;53.640;10.050;2023-02-17T04:26:38;101155.59;;;8.53;100.00
23574;BME280;11965;53.640;10.050;2023-02-17T04:29:06;101148.69;;;8.57;100.00
23574;BME280;11965;53.640;10.050;2023-02-17T04:31:33;101144.38;;;8.63;100.00
23574;BME280;11965;53.640;10.050;2023-02-17T04:34:00;101149.38;;;8.59;100.00
23574;BME280;11965;53.640;10.050;2023-02-17T04:36:26;101145.06;;;8.65;100.00
23574;BME280;11965;53.640;10.050;2023-02-17T04:38:53;101146.09;;;8.64;100.00
23574;BME280;11965;53.640;10.050;2023-02-17T04:41:20;101146.44;;;8.61;100.00
23574;BME280;11965;53.640;10.050;2023-02-17T04:43:47;101136.75;;;8.57;100.00
23574;BME280;11965;53.640;10.050;2023-02-17T04:46:15;101132.47;;;8.54;100.00
23574;BME280;11965;53.640;10.050;2023-02-17T04:48:42;101137.31;;;8.52;100.00
23574;BME280;11965;53.640;10.050;2023-02-17T04:51:09;101141.78;;;8.53;100.00
23574;BME280;11965;53.640;10.050;2023-02-17T04:53:36;101137.13;;;8.54;100.00
23574;BME280;11965;53.640;10.050;2023-02-17T04:56:03;101139.22;;;8.52;100.00
23574;BME280;11965;53.640;10.050;2023-02-17T04:58:30;101134.88;;;8.57;100.00
23574;BME280;11965;53.640;10.050;2023-02-17T05:00:58;101124.19;;;8.54;100.00
23574;BME280;11965;53.640;10.050;2023-02-17T05:03:27;101120.38;;;8.55;100.00
23574;BME280;11965;53.640;10.050;2023-02-17T05:05:53;101125.38;;;8.60;100.00
23574;BME280;11965;53.640;10.050;2023-02-17T05:08:20;101116.56;;;8.65;100.00
23574;BME280;11965;53.640;10.050;2023-02-17T05:10:49;101119.50;;;8.63;100.00
23574;BME280;11965;53.640;10.050;2023-02-17T05:13:16;101100.69;;;8.58;100.00
23574;BME280;11965;53.640;10.050;2023-02-17T05:15:42;101094.63;;;8.63;100.00
23574;BME280;11965;53.640;10.050;2023-02-17T05:18:09;101093.25;;;8.59;100.00
23574;BME280;11965;53.640;10.050;2023-02-17T05:20:37;101082.91;;;8.61;100.00
23574;BME280;11965;53.640;10.050;2023-02-17T05:23:04;101083.25;;;8.58;100.00
23574;BME280;11965;53.640;10.050;2023-02-17T05:25:31;101077.19;;;8.62;100.00
23574;BME280;11965;53.640;10.050;2023-02-17T05:27:58;101085.50;;;8.62;100.00
23574;BME280;11965;53.640;10.050;2023-02-17T05:30:25;101073.03;;;8.67;100.00
23574;BME280;11965;53.640;10.050;2023-02-17T05:32:52;101065.44;;;8.69;100.00
23574;BME280;11965;53.640;10.050;2023-02-17T05:35:18;101064.06;;;8.65;100.00
23574;BME280;11965;53.640;10.050;2023-02-17T05:37:47;101058.88;;;8.61;100.00
23574;BME280;11965;53.640;10.050;2023-02-17T05:40:14;101059.41;;;8.65;100.00
23574;BME280;11965;53.640;10.050;2023-02-17T05:42:41;101051.41;;;8.70;100.00
23574;BME280;11965;53.640;10.050;2023-02-17T05:45:07;101043.13;;;8.70;100.00
23574;BME280;11965;53.640;10.050;2023-02-17T05:47:35;101034.34;;;8.67;100.00
23574;BME280;11965;53.640;10.050;2023-02-17T05:50:03;101030.03;;;8.64;100.00
23574;BME280;11965;53.640;10.050;2023-02-17T05:52:30;101027.63;;;8.61;100.00
23574;BME280;11965;53.640;10.050;2023-02-17T05:54:58;101036.25;;;8.66;100.00
23574;BME280;11965;53.640;10.050;2023-02-17T05:57:25;101030.03;;;8.64;100.00
23574;BME280;11965;53.640;10.050;2023-02-17T05:59:52;101031.41;;;8.68;100.00
23574;BME280;11965;53.640;10.050;2023-02-17T06:02:18;101023.50;;;8.65;100.00
23574;BME280;11965;53.640;10.050;2023-02-17T06:04:45;101029.00;;;8.73;100.00
23574;BME280;11965;53.640;10.050;2023-02-17T06:07:12;101026.22;;;8.73;100.00
23574;BME280;11965;53.640;10.050;2023-02-17T06:09:39;101031.91;;;8.72;100.00
23574;BME280;11965;53.640;10.050;2023-02-17T06:12:07;101027.03;;;8.82;100.00
23574;BME280;11965;53.640;10.050;2023-02-17T06:14:34;101020.34;;;8.76;100.00
23574;BME280;11965;53.640;10.050;2023-02-17T06:17:01;101021.00;;;8.78;100.00
23574;BME280;11965;53.640;10.050;2023-02-17T06:19:28;101014.44;;;8.79;100.00
23574;BME280;11965;53.640;10.050;2023-02-17T06:21:55;101011.69;;;8.79;100.00
23574;BME280;11965;53.640;10.050;2023-02-17T06:24:23;101003.19;;;8.81;100.00
23574;BME280;11965;53.640;10.050;2023-02-17T06:26:50;100989.41;;;8.73;100.00
23574;BME280;11965;53.640;10.050;2023-02-17T06:29:18;100982.66;;;8.75;100.00
23574;BME280;11965;53.640;10.050;2023-02-17T06:31:45;100982.66;;;8.75;100.00
23574;BME280;11965;53.640;10.050;2023-02-17T06:34:12;100977.66;;;8.79;100.00
23574;BME280;11965;53.640;10.050;2023-02-17T06:36:39;100959.38;;;8.70;100.00
23574;BME280;11965;53.640;10.050;2023-02-17T06:39:06;100945.94;;;8.67;100.00
23574;BME280;11965;53.640;10.050;2023-02-17T06:41:32;100952.31;;;8.67;100.00
23574;BME280;11965;53.640;10.050;2023-02-17T06:43:59;100944.88;;;8.68;100.00
23574;BME280;11965;53.640;10.050;2023-02-17T06:46:27;100941.94;;;8.69;100.00
23574;BME280;11965;53.640;10.050;2023-02-17T06:48:55;100946.25;;;8.72;100.00
23574;BME280;11965;53.640;10.050;2023-02-17T06:51:21;100948.81;;;8.81;100.00
23574;BME280;11965;53.640;10.050;2023-02-17T06:53:48;100941.22;;;8.75;100.00
23574;BME280;11965;53.640;10.050;2023-02-17T06:56:15;100944.97;;;8.82;100.00
23574;BME280;11965;53.640;10.050;2023-02-17T06:58:42;100938.78;;;8.80;100.00
23574;BME280;11965;53.640;10.050;2023-02-17T07:01:15;100937.75;;;8.81;100.00
23574;BME280;11965;53.640;10.050;2023-02-17T07:03:43;100933.25;;;8.80;100.00
23574;BME280;11965;53.640;10.050;2023-02-17T07:06:10;100926.38;;;8.76;100.00
23574;BME280;11965;53.640;10.050;2023-02-17T07:08:37;100922.38;;;8.79;100.00
23574;BME280;11965;53.640;10.050;2023-02-17T07:11:05;100927.03;;;8.78;100.00
23574;BME280;11965;53.640;10.050;2023-02-17T07:13:32;100920.66;;;8.78;100.00
23574;BME280;11965;53.640;10.050;2023-02-17T07:15:59;100918.03;;;8.84;100.00
23574;BME280;11965;53.640;10.050;2023-02-17T07:18:26;100913.91;;;8.80;100.00
23574;BME280;11965;53.640;10.050;2023-02-17T07:20:54;100912.19;;;8.79;100.00
23574;BME280;11965;53.640;10.050;2023-02-17T07:23:21;100909.22;;;8.81;100.00
23574;BME280;11965;53.640;10.050;2023-02-17T07:25:48;100916.97;;;8.85;100.00
23574;BME280;11965;53.640;10.050;2023-02-17T07:28:15;100913.72;;;8.82;100.00
23574;BME280;11965;53.640;10.050;2023-02-17T07:30:42;100917.72;;;8.79;100.00
23574;BME280;11965;53.640;10.050;2023-02-17T07:33:10;100911.34;;;8.79;100.00
23574;BME280;11965;53.640;10.050;2023-02-17T07:35:39;100899.53;;;8.85;100.00
23574;BME280;11965;53.640;10.050;2023-02-17T07:38:08;100909.75;;;8.84;100.00
23574;BME280;11965;53.640;10.050;2023-02-17T07:40:35;100899.38;;;8.78;100.00
23574;BME280;11965;53.640;10.050;2023-02-17T07:43:03;100889.81;;;8.89;100.00
23574;BME280;11965;53.640;10.050;2023-02-17T07:45:30;100882.41;;;8.90;100.00
23574;BME280;11965;53.640;10.050;2023-02-17T07:47:57;100890.72;;;8.90;100.00
23574;BME280;11965;53.640;10.050;2023-02-17T07:50:24;100892.56;;;8.97;100.00
23574;BME280;11965;53.640;10.050;2023-02-17T07:52:51;100887.56;;;8.93;100.00
23574;BME280;11965;53.640;10.050;2023-02-17T07:55:19;100887.22;;;8.96;100.00
23574;BME280;11965;53.640;10.050;2023-02-17T07:57:46;100885.44;;;9.03;100.00
23574;BME280;11965;53.640;10.050;2023-02-17T08:00:14;100887.16;;;9.04;100.00
23574;BME280;11965;53.640;10.050;2023-02-17T08:02:41;100865.78;;;8.98;100.00
23574;BME280;11965;53.640;10.050;2023-02-17T08:05:08;100858.19;;;8.92;100.00
23574;BME280;11965;53.640;10.050;2023-02-17T08:07:35;100847.91;;;9.09;100.00
23574;BME280;11965;53.640;10.050;2023-02-17T08:10:02;100847.75;;;9.02;100.00
23574;BME280;11965;53.640;10.050;2023-02-17T08:12:47;100854.66;;;9.06;100.00
23574;BME280;11965;53.640;10.050;2023-02-17T08:15:32;100842.91;;;9.04;100.00
23574;BME280;11965;53.640;10.050;2023-02-17T08:17:59;100839.84;;;8.99;100.00
23574;BME280;11965;53.640;10.050;2023-02-17T08:20:27;100843.75;;;9.04;100.00
23574;BME280;11965;53.640;10.050;2023-02-17T08:22:53;100812.66;;;9.02;100.00
23574;BME280;11965;53.640;10.050;2023-02-17T08:25:20;100825.41;;;9.12;100.00
23574;BME280;11965;53.640;10.050;2023-02-17T08:27:48;100820.78;;;9.04;100.00
23574;BME280;11965;53.640;10.050;2023-02-17T08:30:16;100812.31;;;9.05;100.00
23574;BME280;11965;53.640;10.050;2023-02-17T08:32:43;100824.41;;;9.04;100.00
23574;BME280;11965;53.640;10.050;2023-02-17T08:35:12;100821.09;;;9.09;100.00
23574;BME280;11965;53.640;10.050;2023-02-17T08:37:38;100819.13;;;9.18;100.00
23574;BME280;11965;53.640;10.050;2023-02-17T08:40:07;100795.47;;;9.15;100.00
23574;BME280;11965;53.640;10.050;2023-02-17T08:42:34;100803.66;;;9.09;100.00
23574;BME280;11965;53.640;10.050;2023-02-17T08:45:03;100797.44;;;9.06;100.00
23574;BME280;11965;53.640;10.050;2023-02-17T08:47:29;100790.47;;;9.11;100.00
23574;BME280;11965;53.640;10.050;2023-02-17T08:49:56;100798.00;;;9.02;100.00
23574;BME280;11965;53.640;10.050;2023-02-17T08:52:23;100789.03;;;9.00;100.00
23574;BME280;11965;53.640;10.050;2023-02-17T08:54:50;100807.34;;;9.01;100.00
23574;BME280;11965;53.640;10.050;2023-02-17T08:57:17;100823.00;;;9.09;100.00
23574;BME280;11965;53.640;10.050;2023-02-17T08:59:46;100823.72;;;9.02;100.00
23574;BME280;11965;53.640;10.050;2023-02-17T09:02:15;100814.41;;;9.03;100.00
23574;BME280;11965;53.640;10.050;2023-02-17T09:04:44;100823.19;;;9.07;100.00
23574;BME280;11965;53.640;10.050;2023-02-17T09:07:12;100818.34;;;9.09;100.00
23574;BME280;11965;53.640;10.050;2023-02-17T09:09:40;100800.81;;;9.17;100.00
23574;BME280;11965;53.640;10.050;2023-02-17T09:12:07;100802.81;;;9.23;100.00
23574;BME280;11965;53.640;10.050;2023-02-17T09:14:34;100800.63;;;9.18;100.00
23574;BME280;11965;53.640;10.050;2023-02-17T09:17:01;100793.75;;;9.14;100.00
23574;BME280;11965;53.640;10.050;2023-02-17T09:19:30;100777.47;;;9.19;100.00
23574;BME280;11965;53.640;10.050;2023-02-17T09:21:57;100773.53;;;9.14;100.00
23574;BME280;11965;53.640;10.050;2023-02-17T09:24:24;100774.50;;;9.21;100.00
23574;BME280;11965;53.640;10.050;2023-02-17T09:26:50;100779.72;;;9.16;100.00
23574;BME280;11965;53.640;10.050;2023-02-17T09:29:17;100770.09;;;9.12;100.00
23574;BME280;11965;53.640;10.050;2023-02-17T09:31:44;100768.31;;;9.19;100.00
23574;BME280;11965;53.640;10.050;2023-02-17T09:34:11;100755.63;;;9.24;100.00
23574;BME280;11965;53.640;10.050;2023-02-17T09:36:40;100749.81;;;9.19;100.00
23574;BME280;11965;53.640;10.050;2023-02-17T09:39:08;100735.97;;;9.19;100.00
23574;BME280;11965;53.640;10.050;2023-02-17T09:41:40;100727.59;;;9.27;100.00
23574;BME280;11965;53.640;10.050;2023-02-17T09:44:16;100733.69;;;9.23;100.00
23574;BME280;11965;53.640;10.050;2023-02-17T09:46:52;100745.03;;;9.28;100.00
23574;BME280;11965;53.640;10.050;2023-02-17T09:49:25;100747.63;;;9.29;100.00
23574;BME280;11965;53.640;10.050;2023-02-17T09:52:01;100739.34;;;9.29;100.00
23574;BME280;11965;53.640;10.050;2023-02-17T09:54:37;100734.06;;;9.35;100.00
23574;BME280;11965;53.640;10.050;2023-02-17T09:57:11;100729.91;;;9.39;100.00
23574;BME280;11965;53.640;10.050;2023-02-17T09:59:44;100728.06;;;9.31;100.00
23574;BME280;11965;53.640;10.050;2023-02-17T10:02:18;100746.50;;;9.39;100.00
23574;BME280;11965;53.640;10.050;2023-02-17T10:04:53;100748.00;;;9.26;100.00
23574;BME280;11965;53.640;10.050;2023-02-17T10:07:29;100739.34;;;9.29;100.00
23574;BME280;11965;53.640;10.050;2023-02-17T10:10:06;100743.91;;;9.37;100.00
23574;BME280;11965;53.640;10.050;2023-02-17T10:12:39;100731.78;;;9.53;100.00
23574;BME280;11965;53.640;10.050;2023-02-17T10:15:09;100743.91;;;9.52;100.00
23574;BME280;11965;53.640;10.050;2023-02-17T10:17:43;100730.56;;;9.56;100.00
23574;BME280;11965;53.640;10.050;2023-02-17T10:20:15;100738.19;;;9.54;100.00
23574;BME280;11965;53.640;10.050;2023-02-17T10:22:51;100743.53;;;9.55;100.00
23574;BME280;11965;53.640;10.050;2023-02-17T10:25:43;100768.91;;;9.59;100.00
23574;BME280;11965;53.640;10.050;2023-02-17T10:28:17;100766.06;;;9.52;100.00
23574;BME280;11965;53.640;10.050;2023-02-17T10:30:55;100760.22;;;9.47;100.00
23574;BME280;11965;53.640;10.050;2023-02-17T10:33:34;100728.38;;;9.51;100.00
23574;BME280;11965;53.640;10.050;2023-02-17T10:36:10;100752.97;;;9.61;100.00
23574;BME280;11965;53.640;10.050;2023-02-17T10:38:48;100753.19;;;9.59;100.00
23574;BME280;11965;53.640;10.050;2023-02-17T10:41:21;100741.72;;;9.62;100.00
23574;BME280;11965;53.640;10.050;2023-02-17T10:43:50;100735.25;;;9.70;100.00
23574;BME280;11965;53.640;10.050;2023-02-17T10:46:24;100730.34;;;9.72;100.00
23574;BME280;11965;53.640;10.050;2023-02-17T10:48:55;100729.50;;;9.71;100.00
23574;BME280;11965;53.640;10.050;2023-02-17T10:51:28;100718.53;;;9.78;100.00
23574;BME280;11965;53.640;10.050;2023-02-17T10:54:01;100706.41;;;9.79;100.00
23574;BME280;11965;53.640;10.050;2023-02-17T10:56:36;100698.78;;;9.81;100.00
23574;BME280;11965;53.640;10.050;2023-02-17T10:59:13;100711.53;;;9.82;100.00
23574;BME280;11965;53.640;10.050;2023-02-17T11:01:42;100710.31;;;9.85;100.00
23574;BME280;11965;53.640;10.050;2023-02-17T11:04:11;100707.53;;;9.85;100.00
23574;BME280;11965;53.640;10.050;2023-02-17T11:06:42;100696.19;;;9.80;100.00
23574;BME280;11965;53.640;10.050;2023-02-17T11:09:19;100699.63;;;9.82;100.00
23574;BME280;11965;53.640;10.050;2023-02-17T11:11:56;100698.44;;;9.91;100.00
23574;BME280;11965;53.640;10.050;2023-02-17T11:14:26;100706.84;;;9.98;100.00
23574;BME280;11965;53.640;10.050;2023-02-17T11:16:56;100716.00;;;9.98;100.00
23574;BME280;11965;53.640;10.050;2023-02-17T11:19:27;100702.56;;;9.95;100.00
23574;BME280;11965;53.640;10.050;2023-02-17T11:21:57;100713.34;;;9.90;100.00
23574;BME280;11965;53.640;10.050;2023-02-17T11:24:27;100699.63;;;9.82;100.00
23574;BME280;11965;53.640;10.050;2023-02-17T11:26:56;100700.88;;;9.79;100.00
23574;BME280;11965;53.640;10.050;2023-02-17T11:29:24;100711.44;;;9.90;100.00
23574;BME280;11965;53.640;10.050;2023-02-17T11:31:56;100682.50;;;9.93;100.00
23574;BME280;11965;53.640;10.050;2023-02-17T11:34:26;100670.84;;;9.98;100.00
23574;BME280;11965;53.640;10.050;2023-02-17T11:36:58;100682.91;;;9.90;100.00
23574;BME280;11965;53.640;10.050;2023-02-17T11:39:28;100673.47;;;9.84;100.00
23574;BME280;11965;53.640;10.050;2023-02-17T11:41:55;100685.66;;;9.90;100.00
23574;BME280;11965;53.640;10.050;2023-02-17T11:44:24;100687.59;;;9.89;100.00
23574;BME280;11965;53.640;10.050;2023-02-17T11:46:58;100697.41;;;9.92;100.00
23574;BME280;11965;53.640;10.050;2023-02-17T11:49:50;100694.25;;;9.95;100.00
23574;BME280;11965;53.640;10.050;2023-02-17T11:52:37;100677.44;;;9.96;100.00
23574;BME280;11965;53.640;10.050;2023-02-17T11:55:18;100689.38;;;9.97;100.00
23574;BME280;11965;53.640;10.050;2023-02-17T11:58:03;100680.69;;;10.00;100.00
23574;BME280;11965;53.640;10.050;2023-02-17T12:00:43;100691.91;;;10.13;100.00
23574;BME280;11965;53.640;10.050;2023-02-17T12:03:46;100680.84;;;10.13;100.00
23574;BME280;11965;53.640;10.050;2023-02-17T12:06:23;100688.81;;;10.23;100.00
23574;BME280;11965;53.640;10.050;2023-02-17T12:09:04;100703.44;;;10.32;100.00
23574;BME280;11965;53.640;10.050;2023-02-17T12:11:45;100696.91;;;10.39;100.00
23574;BME280;11965;53.640;10.050;2023-02-17T12:14:32;100684.69;;;10.34;100.00
23574;BME280;11965;53.640;10.050;2023-02-17T12:17:14;100684.09;;;10.38;100.00
23574;BME280;11965;53.640;10.050;2023-02-17T12:19:55;100677.50;;;10.39;100.00
23574;BME280;11965;53.640;10.050;2023-02-17T12:22:34;100701.00;;;10.44;100.00
23574;BME280;11965;53.640;10.050;2023-02-17T12:25:22;100681.78;;;10.42;100.00
23574;BME280;11965;53.640;10.050;2023-02-17T12:28:09;100682.06;;;10.47;100.00
23574;BME280;11965;53.640;10.050;2023-02-17T12:30:52;100688.41;;;10.41;100.00
23574;BME280;11965;53.640;10.050;2023-02-17T12:33:41;100678.66;;;10.45;100.00
23574;BME280;11965;53.640;10.050;2023-02-17T12:36:15;100674.16;;;10.44;100.00
23574;BME280;11965;53.640;10.050;2023-02-17T12:38:48;100668.34;;;10.39;100.00
23574;BME280;11965;53.640;10.050;2023-02-17T12:41:19;100685.81;;;10.39;100.00
23574;BME280;11965;53.640;10.050;2023-02-17T12:43:53;100695.47;;;10.44;100.00
23574;BME280;11965;53.640;10.050;2023-02-17T12:46:26;100707.13;;;10.39;100.00
23574;BME280;11965;53.640;10.050;2023-02-17T12:48:58;100698.41;;;10.42;100.00
23574;BME280;11965;53.640;10.050;2023-02-17T12:51:32;100690.91;;;10.36;100.00
23574;BME280;11965;53.640;10.050;2023-02-17T12:54:07;100686.22;;;10.36;100.00
23574;BME280;11965;53.640;10.050;2023-02-17T12:57:03;100686.28;;;10.43;100.00
23574;BME280;11965;53.640;10.050;2023-02-17T12:59:36;100693.34;;;10.46;100.00
23574;BME280;11965;53.640;10.050;2023-02-17T13:02:05;100703.44;;;10.32;100.00